Time;durP1;ratioP1;P1;durP2;ratioP2;P2;SDS_P1;SDS_P2;PMS_P1;PMS_P2;Temp;Humidity;BMP_temperature;BMP_pressure;BME280_temperature;BME280_humidity;BME280_pressure;Samples;Min_cycle;Max_cycle;Signal;HPM_P1;HPM_P2
2022/11/16 00:01:52;;;;;;;5.83;5.23;;;;;;;10.43;100.00;154036.78;4992759;28;20520;-88
2022/11/16 00:04:37;;;;;;;6.10;5.20;;;;;;;10.47;100.00;154048.41;4980974;28;20453;-88
2022/11/16 00:07:23;;;;;;;6.53;5.60;;;;;;;10.42;100.00;154035.47;4978923;28;20808;-88
2022/11/16 00:10:10;;;;;;;5.40;4.90;;;;;;;10.38;100.00;154025.09;4974422;28;20418;-88
2022/11/16 00:12:55;;;;;;;6.10;5.07;;;;;;;10.38;100.00;154025.09;4981003;28;20448;-88
2022/11/16 00:15:40;;;;;;;5.90;5.20;;;;;;;10.38;100.00;154025.09;4981189;28;20461;-88
2022/11/16 00:18:28;;;;;;;6.57;5.87;;;;;;;10.34;100.00;154014.75;4972917;28;20542;-88
2022/11/16 00:21:13;;;;;;;5.30;4.80;;;;;;;10.32;100.00;154009.59;4988635;28;20449;-88
2022/11/16 00:23:59;;;;;;;5.30;4.67;;;;;;;10.29;100.00;154003.13;4977909;28;20453;-88
2022/11/16 00:26:45;;;;;;;6.10;4.77;;;;;;;10.29;100.00;154001.81;4991985;28;20432;-88
2022/11/16 00:29:31;;;;;;;4.80;4.17;;;;;;;10.26;100.00;153994.03;4963162;28;20920;-88
2022/11/16 00:32:16;;;;;;;5.50;4.87;;;;;;;10.27;100.00;153996.66;4973815;28;20816;-88
2022/11/16 00:35:03;;;;;;;5.10;4.60;;;;;;;10.28;100.00;153999.22;4989469;28;20457;-88
2022/11/16 00:37:51;;;;;;;5.87;4.60;;;;;;;10.20;100.00;153978.50;4991899;28;20967;-88
2022/11/16 00:40:36;;;;;;;5.23;4.73;;;;;;;10.15;100.00;153965.56;4973958;28;20967;-88
2022/11/16 00:43:22;;;;;;;7.17;4.70;;;;;;;10.11;100.00;153956.44;4993598;28;20449;-88
2022/11/16 00:46:08;;;;;;;4.30;3.90;;;;;;;10.12;100.00;153959.09;4992974;28;20519;-88
2022/11/16 00:48:54;;;;;;;6.63;4.67;;;;;;;10.11;100.00;153955.19;4982919;28;20477;-88
2022/11/16 00:51:40;;;;;;;6.20;5.57;;;;;;;10.09;100.00;153951.25;4972439;28;20445;-88
2022/11/16 00:54:27;;;;;;;5.00;4.50;;;;;;;10.15;100.00;153966.88;4977021;28;20437;-88
2022/11/16 00:57:12;;;;;;;6.20;5.07;;;;;;;10.05;100.00;153939.63;4977789;28;20536;-88
2022/11/16 00:59:57;;;;;;;5.97;5.20;;;;;;;10.02;100.00;153931.88;4987914;28;20461;-88
2022/11/16 01:02:43;;;;;;;4.97;4.47;;;;;;;10.03;100.00;153934.47;4973782;28;20441;-88
2022/11/16 01:05:29;;;;;;;6.90;4.80;;;;;;;10.02;100.00;153931.88;4978587;28;20569;-88
2022/11/16 01:08:16;;;;;;;5.50;4.67;;;;;;;10.03;100.00;153934.47;4982672;28;20552;-88
2022/11/16 01:14:01;;;;;;;6.43;4.77;;;;;;;9.95;100.00;153915.06;4990802;28;20492;-88
2022/11/16 01:16:49;;;;;;;6.00;5.40;;;;;;;9.92;100.00;153907.28;4993191;28;20520;-88
2022/11/16 01:19:34;;;;;;;6.60;5.40;;;;;;;9.86;100.00;153890.44;4996661;28;20448;-88
2022/11/16 01:22:19;;;;;;;5.67;5.07;;;;;;;9.87;100.00;153893.06;4996261;28;20793;-88
2022/11/16 01:25:07;;;;;;;5.47;4.87;;;;;;;9.83;100.00;153883.97;4995868;28;20584;-88
2022/11/16 01:27:53;;;;;;;8.30;5.83;;;;;;;9.86;100.00;153890.44;4996641;28;20508;-88
2022/11/16 01:30:48;;;;;;;5.83;4.93;;;;;;;9.87;100.00;153894.34;4979919;28;20940;-87
2022/11/16 01:33:34;;;;;;;5.67;4.87;;;;;;;9.80;100.00;153876.22;4985730;28;20488;-88
2022/11/16 01:36:19;;;;;;;7.57;6.83;;;;;;;9.77;100.00;153869.75;4980335;28;20911;-88
2022/11/16 01:39:05;;;;;;;8.93;6.10;;;;;;;9.72;100.00;153856.81;4992616;28;20530;-88
2022/11/16 01:42:02;;;;;;;7.80;7.00;;;;;;;9.74;100.00;153861.97;4962620;28;20521;-88
2022/11/16 01:45:07;;;;;;;7.23;5.83;;;;;;;9.73;100.00;153859.41;4985321;28;20572;-87
2022/11/16 01:47:53;;;;;;;6.70;5.70;;;;;;;9.72;100.00;153855.50;4977894;28;20449;-88
2022/11/16 01:50:42;;;;;;;7.40;6.30;;;;;;;9.70;100.00;153851.63;4964290;28;20468;-88
2022/11/16 01:53:27;;;;;;;6.90;5.00;;;;;;;9.73;100.00;153859.41;4976760;28;20398;-88
2022/11/16 01:56:15;;;;;;;7.53;6.20;;;;;;;9.82;100.00;153882.69;4983936;28;20801;-88
2022/11/16 01:59:17;;;;;;;10.40;5.90;;;;;;;9.70;100.00;153851.63;4973424;28;20461;-88
2022/11/16 02:02:03;;;;;;;6.63;5.30;;;;;;;9.70;100.00;153851.63;4985478;28;20792;-88
2022/11/16 02:04:51;;;;;;;6.97;5.17;;;;;;;9.68;100.00;153845.16;4988952;28;20923;-88
2022/11/16 02:11:25;;;;;;;7.23;5.40;;;;;;;9.68;100.00;153846.47;4991829;28;20508;-88
2022/11/16 02:14:19;;;;;;;5.27;4.77;;;;;;;9.70;100.00;153851.63;4980582;28;20759;-88
2022/11/16 02:17:11;;;;;;;7.40;6.00;;;;;;;9.69;100.00;153847.72;4994816;28;20448;-88
2022/11/16 02:20:32;;;;;;;6.13;5.50;;;;;;;9.69;100.00;153849.03;4979434;28;20487;-88
2022/11/16 02:23:38;;;;;;;9.37;8.23;;;;;;;9.72;100.00;153856.81;4987643;28;20475;-88
2022/11/16 02:26:37;;;;;;;6.80;6.10;;;;;;;9.73;100.00;153858.09;5010637;28;20449;-88
2022/11/16 02:29:28;;;;;;;7.70;6.50;;;;;;;9.72;100.00;153855.50;4977812;28;20456;-88
2022/11/16 02:32:17;;;;;;;7.30;6.50;;;;;;;9.68;100.00;153845.16;4977913;28;20514;-88
2022/11/16 02:35:07;;;;;;;8.30;7.37;;;;;;;9.69;100.00;153849.03;4973845;28;20820;-88
2022/11/16 02:37:56;;;;;;;8.30;7.00;;;;;;;9.68;100.00;153846.47;4979051;28;20480;-88
2022/11/16 02:40:46;;;;;;;7.97;6.93;;;;;;;9.65;100.00;153837.41;4978824;28;20445;-87
2022/11/16 02:43:39;;;;;;;7.40;6.70;;;;;;;9.63;100.00;153833.53;4980436;28;20441;-88
2022/11/16 02:46:28;;;;;;;10.20;6.80;;;;;;;9.60;100.00;153824.47;4969611;28;20618;-87
2022/11/16 02:49:18;;;;;;;9.87;7.27;;;;;;;9.55;100.00;153812.84;4961431;28;20762;-88
2022/11/16 02:52:04;;;;;;;8.30;7.50;;;;;;;9.58;100.00;153820.56;4968187;28;20975;-88
2022/11/16 02:54:49;;;;;;;8.23;7.00;;;;;;;9.59;100.00;153823.16;4979418;28;20437;-87
2022/11/16 02:57:41;;;;;;;11.37;7.60;;;;;;;9.60;100.00;153825.78;4989752;28;20600;-88
2022/11/16 03:00:35;;;;;;;7.73;6.93;;;;;;;9.60;100.00;153824.47;4971711;28;20465;-88
2022/11/16 03:03:27;;;;;;;7.00;6.17;;;;;;;9.60;100.00;153825.78;4967436;28;20480;-88
2022/11/16 03:06:14;;;;;;;8.50;7.13;;;;;;;9.59;100.00;153821.88;4968739;28;20522;-88
2022/11/16 03:09:03;;;;;;;9.53;6.20;;;;;;;9.62;100.00;153829.63;4979620;28;20421;-88
2022/11/16 03:11:59;;;;;;;7.33;6.33;;;;;;;9.64;100.00;153836.09;4969969;28;20488;-88
2022/11/16 03:14:49;;;;;;;6.50;5.90;;;;;;;9.68;100.00;153846.47;4964746;28;20448;-88
2022/11/16 03:17:38;;;;;;;6.77;5.40;;;;;;;9.71;100.00;153854.25;4977269;28;20453;-88
2022/11/16 03:20:27;;;;;;;5.53;5.03;;;;;;;9.68;100.00;153845.16;4975844;28;20453;-88
2022/11/16 03:23:13;;;;;;;5.60;5.10;;;;;;;9.70;100.00;153851.63;4969500;28;21016;-88
2022/11/16 03:26:05;;;;;;;6.57;5.97;;;;;;;9.68;100.00;153846.47;4978030;28;20445;-87
2022/11/16 03:28:55;;;;;;;5.90;4.90;;;;;;;9.71;100.00;153854.25;4974018;28;20886;-88
2022/11/16 03:31:45;;;;;;;5.90;4.70;;;;;;;9.71;100.00;153854.25;4970524;28;20796;-87
2022/11/16 03:34:36;;;;;;;5.37;4.70;;;;;;;9.72;100.00;153855.50;4977936;28;20488;-88
2022/11/16 03:37:24;;;;;;;5.73;5.23;;;;;;;9.69;100.00;153849.03;4994362;28;20441;-87
2022/11/16 03:40:11;;;;;;;5.00;4.50;;;;;;;9.70;100.00;153851.63;4990529;28;20433;-88
2022/11/16 03:42:58;;;;;;;7.10;4.80;;;;;;;9.67;100.00;153842.56;4982890;28;20453;-88
2022/11/16 03:45:44;;;;;;;4.90;4.40;;;;;;;9.69;100.00;153849.03;4979251;28;20793;-88
2022/11/16 03:48:34;;;;;;;5.10;4.10;;;;;;;9.71;100.00;153852.94;4992551;28;20413;-87
2022/11/16 03:51:22;;;;;;;3.53;3.20;;;;;;;9.72;100.00;153855.50;4978975;28;20536;-88
2022/11/16 03:54:09;;;;;;;4.70;4.23;;;;;;;9.72;100.00;153856.81;4978133;28;20409;-88
2022/11/16 03:56:54;;;;;;;5.90;4.27;;;;;;;9.72;100.00;153855.50;4978577;28;20504;-88
2022/11/16 03:59:41;;;;;;;12.17;10.87;;;;;;;9.82;100.00;153881.41;4981727;28;20465;-88
2022/11/16 04:02:26;;;;;;;12.17;9.80;;;;;;;9.76;100.00;153867.19;4979002;28;20445;-88
2022/11/16 04:29:51;;;;;;;6.03;5.30;;;;;;;9.72;100.00;153856.81;4978711;28;20441;-87
2022/11/16 04:38:42;;;;;;;6.50;5.77;;;;;;;9.70;100.00;153850.34;4990912;28;20488;-88
2022/11/16 04:47:39;;;;;;;5.30;4.80;;;;;;;9.77;100.00;153869.75;4976325;28;20519;-87
2022/11/16 04:50:25;;;;;;;4.60;4.20;;;;;;;9.79;100.00;153874.91;4985465;28;21032;-88
2022/11/16 04:53:10;;;;;;;4.67;3.50;;;;;;;9.82;100.00;153882.69;4971350;28;20573;-88
2022/11/16 04:56:02;;;;;;;6.00;3.27;;;;;;;9.88;100.00;153895.59;4978277;28;20499;-88
2022/11/16 04:58:49;;;;;;;4.63;3.00;;;;;;;9.91;100.00;153903.38;4988449;28;20473;-88
2022/11/16 05:04:40;;;;;;;3.80;2.50;;;;;;;9.96;100.00;153916.31;4987830;28;20441;-88
2022/11/16 05:07:26;;;;;;;4.50;2.73;;;;;;;9.96;100.00;153917.63;4977189;28;20452;-88
2022/11/16 05:10:19;;;;;;;4.00;3.00;;;;;;;9.98;100.00;153921.53;4989132;28;20592;-88
2022/11/16 05:13:04;;;;;;;3.07;2.77;;;;;;;9.99;100.00;153924.09;4978628;28;20409;-88
2022/11/16 05:15:51;;;;;;;3.03;2.63;;;;;;;9.99;100.00;153925.38;4967724;28;20466;-87
2022/11/16 05:18:37;;;;;;;2.63;2.37;;;;;;;10.02;100.00;153931.88;4969095;28;20533;-87
2022/11/16 05:21:22;;;;;;;3.40;2.70;;;;;;;10.01;100.00;153929.25;4968600;28;20796;-88
2022/11/16 05:27:28;;;;;;;2.80;2.50;;;;;;;10.01;100.00;153929.25;4916120;29;20464;-88
2022/11/16 05:30:14;;;;;;;4.60;3.87;;;;;;;10.00;100.00;153926.69;4911786;29;20525;-88
2022/11/16 05:32:59;;;;;;;5.37;3.63;;;;;;;10.00;100.00;153928.00;4978625;28;20612;-88
2022/11/16 05:35:49;;;;;;;4.80;3.00;;;;;;;10.00;100.00;153928.00;4977738;28;20807;-88
2022/11/16 05:38:34;;;;;;;3.70;3.30;;;;;;;9.96;100.00;153917.63;4965004;28;20508;-88
2022/11/16 05:41:20;;;;;;;4.03;3.40;;;;;;;9.98;100.00;153921.53;4972850;28;20816;-88
2022/11/16 05:44:06;;;;;;;3.50;3.00;;;;;;;9.97;100.00;153918.91;4989331;28;20512;-88
2022/11/16 05:46:54;;;;;;;3.67;3.10;;;;;;;9.95;100.00;153913.75;4970237;28;20449;-88
2022/11/16 05:49:39;;;;;;;6.03;3.17;;;;;;;9.93;100.00;153909.84;4982728;28;20921;-88
2022/11/16 05:52:25;;;;;;;5.67;3.37;;;;;;;9.94;100.00;153912.47;4968605;28;20457;-88
2022/11/16 05:55:11;;;;;;;3.33;3.03;;;;;;;9.94;100.00;153912.47;4969228;28;20768;-88
2022/11/16 05:58:02;;;;;;;4.30;3.60;;;;;;;9.90;100.00;153902.06;4978876;28;20787;-88
2022/11/16 06:00:47;;;;;;;5.57;3.50;;;;;;;9.88;100.00;153895.59;4979270;28;20452;-88
2022/11/16 06:03:35;;;;;;;3.33;2.90;;;;;;;9.87;100.00;153893.06;4972225;28;20471;-87
2022/11/16 06:06:21;;;;;;;3.30;3.00;;;;;;;9.85;100.00;153887.88;4974443;28;20931;-87
2022/11/16 06:09:11;;;;;;;3.60;2.63;;;;;;;9.82;100.00;153881.41;4979534;28;20417;-88
2022/11/16 06:11:57;;;;;;;3.80;3.33;;;;;;;9.79;100.00;153874.91;4969182;28;20825;-88
2022/11/16 06:14:42;;;;;;;3.17;2.53;;;;;;;9.77;100.00;153869.75;4975716;28;20518;-87
2022/11/16 06:17:28;;;;;;;3.17;2.63;;;;;;;9.77;100.00;153869.75;4990619;28;20439;-87
2022/11/16 06:20:16;;;;;;;3.10;2.60;;;;;;;9.78;100.00;153872.34;4980526;28;20468;-87
2022/11/16 06:23:02;;;;;;;4.20;3.80;;;;;;;9.79;100.00;153874.91;4984932;28;20441;-88
2022/11/16 06:25:53;;;;;;;3.30;2.73;;;;;;;9.77;100.00;153869.75;4961752;28;20457;-87
2022/11/16 06:28:38;;;;;;;5.10;4.03;;;;;;;9.78;100.00;153872.34;4963352;28;20457;-88
2022/11/16 06:31:23;;;;;;;4.10;3.47;;;;;;;9.82;100.00;153880.13;4984955;28;20956;-87
2022/11/16 06:34:08;;;;;;;4.10;3.27;;;;;;;9.82;100.00;153880.13;4985640;28;20890;-87
2022/11/16 06:36:54;;;;;;;5.60;4.03;;;;;;;9.82;100.00;153882.69;4974529;28;20971;-87
2022/11/16 06:39:39;;;;;;;4.40;3.60;;;;;;;9.81;100.00;153878.81;4967501;28;20488;-88
2022/11/16 06:42:27;;;;;;;4.33;3.83;;;;;;;9.82;100.00;153882.69;4981194;28;20448;-88
2022/11/16 06:45:13;;;;;;;13.83;10.83;;;;;;;9.82;100.00;153882.69;4972522;28;20437;-87
2022/11/16 06:48:04;;;;;;;14.30;8.97;;;;;;;9.84;100.00;153885.28;4967165;28;20527;-87
2022/11/16 06:50:51;;;;;;;5.70;5.10;;;;;;;9.84;100.00;153885.28;4968707;28;20928;-88
2022/11/16 06:53:38;;;;;;;4.50;4.07;;;;;;;9.84;100.00;153885.28;4966646;28;20451;-88
2022/11/16 06:56:25;;;;;;;4.27;3.87;;;;;;;9.84;100.00;153885.28;4975376;28;20564;-88
2022/11/16 06:59:15;;;;;;;3.93;3.43;;;;;;;9.84;100.00;153885.28;4968066;28;20473;-88
2022/11/16 07:02:01;;;;;;;4.63;3.93;;;;;;;9.82;100.00;153882.69;4966671;28;20622;-88
2022/11/16 07:04:50;;;;;;;4.27;3.83;;;;;;;9.80;100.00;153877.50;4972944;28;20465;-88
2022/11/16 07:07:35;;;;;;;5.87;3.20;;;;;;;9.82;100.00;153882.69;4989590;28;20477;-88
2022/11/16 07:10:20;;;;;;;4.60;4.00;;;;;;;9.85;100.00;153889.16;4979557;28;20413;-88
2022/11/16 07:13:06;;;;;;;4.50;3.77;;;;;;;9.86;100.00;153890.44;4993431;28;20421;-88
2022/11/16 07:16:00;;;;;;;4.30;3.90;;;;;;;9.89;100.00;153898.22;4978186;28;20595;-88
2022/11/16 07:18:46;;;;;;;5.00;4.40;;;;;;;9.89;100.00;153898.22;4980148;28;20528;-88
2022/11/16 07:21:32;;;;;;;5.87;4.40;;;;;;;9.89;100.00;153899.53;4979775;28;20444;-87
2022/11/16 07:24:20;;;;;;;4.97;4.47;;;;;;;9.90;100.00;153900.81;4969458;28;20961;-88
2022/11/16 07:27:07;;;;;;;3.47;3.17;;;;;;;9.96;100.00;153916.31;4975678;28;20441;-87
2022/11/16 07:29:55;;;;;;;3.60;3.03;;;;;;;9.93;100.00;153909.84;4990997;28;20453;-87
2022/11/16 07:33:01;;;;;;;3.90;3.50;;;;;;;9.93;100.00;153908.59;4966573;28;20581;-88
2022/11/16 07:36:23;;;;;;;3.50;2.60;;;;;;;9.94;100.00;153912.47;4973799;28;20492;-88
2022/11/16 07:39:10;;;;;;;5.40;3.17;;;;;;;9.96;100.00;153916.31;4961367;28;20525;-88
2022/11/16 07:41:57;;;;;;;3.90;3.40;;;;;;;9.97;100.00;153918.91;4974299;28;20474;-88
2022/11/16 07:44:47;;;;;;;2.43;2.23;;;;;;;9.98;100.00;153921.53;4968274;28;20437;-88
2022/11/16 07:47:35;;;;;;;2.73;2.37;;;;;;;10.00;100.00;153928.00;4974994;28;20433;-88
2022/11/16 07:50:23;;;;;;;2.50;2.30;;;;;;;10.03;100.00;153935.78;4983396;28;20436;-88
2022/11/16 07:53:10;;;;;;;2.27;2.07;;;;;;;10.03;100.00;153935.78;4980532;28;20406;-88
2022/11/16 07:55:57;;;;;;;3.50;1.67;;;;;;;10.03;100.00;153935.78;4974399;28;20428;-88
2022/11/16 07:58:44;;;;;;;2.20;1.63;;;;;;;10.04;100.00;153937.03;4975044;28;20505;-88
2022/11/16 08:01:32;;;;;;;2.67;1.77;;;;;;;10.08;100.00;153948.72;4981750;28;20468;-87
2022/11/16 08:04:18;;;;;;;3.57;1.57;;;;;;;10.08;100.00;153947.41;4975847;28;20441;-88
2022/11/16 08:07:05;;;;;;;2.37;1.60;;;;;;;10.11;100.00;153956.44;4994199;28;20871;-88
2022/11/16 08:09:55;;;;;;;2.80;1.80;;;;;;;10.15;100.00;153965.56;4972181;28;20569;-87
2022/11/16 08:12:41;;;;;;;2.30;1.87;;;;;;;10.18;100.00;153973.34;4963754;28;20536;-88
2022/11/16 08:15:26;;;;;;;2.70;1.57;;;;;;;10.23;100.00;153986.28;4990461;28;20480;-88
2022/11/16 08:18:11;;;;;;;2.00;1.40;;;;;;;10.26;100.00;153994.03;4993539;28;20414;-88
2022/11/16 08:20:58;;;;;;;3.33;1.40;;;;;;;10.29;100.00;154001.81;4993386;28;20584;-88
2022/11/16 08:23:45;;;;;;;5.80;1.63;;;;;;;10.34;100.00;154014.75;4993931;28;20781;-88
2022/11/16 08:26:31;;;;;;;4.00;1.80;;;;;;;10.43;100.00;154036.78;4960556;28;20437;-88
2022/11/16 08:29:23;;;;;;;1.60;1.30;;;;;;;10.45;100.00;154043.25;4967063;28;20570;-88
2022/11/16 08:32:09;;;;;;;2.43;1.00;;;;;;;10.48;100.00;154051.03;4984506;28;20531;-88
2022/11/16 08:34:55;;;;;;;3.80;1.00;;;;;;;10.50;100.00;154056.19;4979713;28;20975;-88
2022/11/16 08:37:40;;;;;;;1.70;1.10;;;;;;;10.57;100.00;154074.31;4993394;28;20424;-88
2022/11/16 08:40:29;;;;;;;1.17;0.80;;;;;;;10.60;100.00;154082.06;4994031;28;20975;-88
2022/11/16 08:43:15;;;;;;;2.10;1.20;;;;;;;10.60;100.00;154082.06;4980022;28;20409;-88
2022/11/16 08:46:02;;;;;;;2.37;0.90;;;;;;;10.61;100.00;154083.38;4980059;28;20468;-88
2022/11/16 08:48:47;;;;;;;1.77;0.77;;;;;;;10.62;100.00;154087.25;4986456;28;20983;-88
2022/11/16 08:51:34;;;;;;;1.50;1.10;;;;;;;10.68;100.00;154102.78;4993220;28;20508;-88
2022/11/16 08:54:23;;;;;;;3.57;1.67;;;;;;;10.69;100.00;154104.09;4979620;28;20914;-87
2022/11/16 08:57:10;;;;;;;1.60;1.10;;;;;;;10.72;100.00;154113.13;4978913;28;20456;-88
2022/11/16 08:59:57;;;;;;;2.97;0.83;;;;;;;10.75;100.00;154120.91;4986924;28;20589;-88
2022/11/16 09:02:42;;;;;;;1.73;1.17;;;;;;;10.77;100.00;154126.13;4993006;28;20433;-87
2022/11/16 09:05:28;;;;;;;2.37;1.20;;;;;;;10.78;100.00;154128.69;4993292;28;20436;-86
2022/11/16 09:08:13;;;;;;;3.60;1.30;;;;;;;10.78;100.00;154128.69;4990145;28;20433;-87
2022/11/16 09:10:59;;;;;;;1.80;1.20;;;;;;;10.82;100.00;154137.78;4994389;28;20840;-87
2022/11/16 09:13:47;;;;;;;2.27;1.23;;;;;;;10.83;100.00;154141.63;4993432;28;20460;-86
2022/11/16 09:16:32;;;;;;;1.40;1.00;;;;;;;10.85;100.00;154146.84;4994132;28;20588;-87
2022/11/16 09:19:19;;;;;;;2.00;1.30;;;;;;;10.85;100.00;154146.84;4989309;28;20469;-87
2022/11/16 09:22:04;;;;;;;2.33;1.40;;;;;;;10.95;100.00;154172.75;4982768;28;20457;-86
2022/11/16 09:24:50;;;;;;;2.00;1.40;;;;;;;10.88;100.00;154154.56;4986241;28;20453;-86
2022/11/16 09:27:36;;;;;;;2.20;1.40;;;;;;;10.89;100.00;154155.88;4990074;28;20445;-78
2022/11/16 09:30:23;;;;;;;2.40;1.80;;;;;;;10.91;100.00;154162.34;4984874;28;20523;-77
2022/11/16 09:33:08;;;;;;;2.10;1.67;;;;;;;10.92;100.00;154163.66;4969316;28;20494;-77
2022/11/16 09:35:54;;;;;;;2.50;2.13;;;;;;;10.97;100.00;154177.91;4983686;28;20458;-77
2022/11/16 09:38:41;;;;;;;4.27;1.73;;;;;;;11.11;100.00;154211.59;4992185;28;20525;-79
2022/11/16 09:41:39;;;;;;;2.20;1.60;;;;;;;10.98;100.00;154180.53;4988871;28;20912;-79
2022/11/16 09:44:38;;;;;;;2.47;1.60;;;;;;;10.99;100.00;154183.09;4973479;28;20469;-79
2022/11/16 09:47:26;;;;;;;2.40;1.67;;;;;;;11.01;100.00;154188.25;4976608;28;20514;-79
2022/11/16 09:50:22;;;;;;;3.03;1.60;;;;;;;11.01;100.00;154188.25;4982981;28;20432;-79
2022/11/16 09:53:20;;;;;;;1.93;1.37;;;;;;;11.06;100.00;154198.63;4985916;28;20437;-78
2022/11/16 09:56:07;;;;;;;2.43;1.40;;;;;;;11.11;100.00;154211.59;4995873;28;20483;-79
2022/11/16 09:58:56;;;;;;;2.40;1.57;;;;;;;11.10;100.00;154208.97;4990241;28;20497;-79
2022/11/16 10:01:46;;;;;;;3.97;1.20;;;;;;;11.06;100.00;154199.94;4985832;28;20441;-79
2022/11/16 10:04:38;;;;;;;2.90;1.33;;;;;;;11.20;100.00;154234.94;4987267;28;20467;-79
2022/11/16 10:07:26;;;;;;;2.93;1.27;;;;;;;11.31;100.00;154263.38;4959430;28;20478;-79
2022/11/16 10:10:13;;;;;;;1.90;1.10;;;;;;;11.31;100.00;154264.69;4976748;28;20406;-79
2022/11/16 10:13:02;;;;;;;3.63;1.53;;;;;;;11.32;100.00;154267.31;4973033;28;20464;-79
2022/11/16 10:16:01;;;;;;;1.90;1.23;;;;;;;11.33;100.00;154269.84;4993510;28;20453;-79
2022/11/16 10:18:55;;;;;;;2.03;1.37;;;;;;;11.32;100.00;154266.00;4989457;28;20528;-79
2022/11/16 10:21:51;;;;;;;1.80;1.30;;;;;;;11.29;100.00;154258.22;4976849;28;20441;-79
2022/11/16 10:24:45;;;;;;;2.70;1.33;;;;;;;11.27;100.00;154253.03;4965708;28;20449;-79
2022/11/16 10:27:40;;;;;;;5.63;2.40;;;;;;;11.30;100.00;154260.81;4992937;28;20433;-76
2022/11/16 10:30:25;;;;;;;1.50;1.00;;;;;;;11.34;100.00;154271.16;4979123;28;20518;-78
2022/11/16 10:33:14;;;;;;;2.53;1.40;;;;;;;11.36;100.00;154277.63;4991150;28;20477;-79
2022/11/16 10:36:01;;;;;;;2.27;1.27;;;;;;;11.41;100.00;154289.34;4986034;28;20526;-78
2022/11/16 10:38:48;;;;;;;3.20;1.20;;;;;;;11.34;100.00;154271.16;4982745;28;21053;-78
2022/11/16 10:41:39;;;;;;;1.50;1.10;;;;;;;11.30;100.00;154262.13;4989382;28;20536;-78
2022/11/16 10:44:40;;;;;;;2.50;1.53;;;;;;;11.30;100.00;154260.81;4981349;28;20472;-78
2022/11/16 10:47:30;;;;;;;5.80;1.60;;;;;;;11.28;100.00;154255.66;4992016;28;20524;-78
2022/11/16 10:50:30;;;;;;;3.50;1.30;;;;;;;11.24;100.00;154245.25;4990231;28;20561;-79
2022/11/16 10:53:26;;;;;;;2.17;1.70;;;;;;;11.21;100.00;154237.47;4961052;28;20509;-78
2022/11/16 10:56:17;;;;;;;2.67;1.37;;;;;;;11.14;100.00;154219.38;4968226;28;20494;-78
2022/11/16 10:59:04;;;;;;;3.03;1.63;;;;;;;11.10;100.00;154208.97;4978775;28;21070;-78
2022/11/16 11:01:50;;;;;;;2.10;1.90;;;;;;;11.08;100.00;154203.81;4976918;28;20421;-78
2022/11/16 11:04:37;;;;;;;2.93;2.20;;;;;;;11.09;100.00;154206.41;4979299;28;20521;-78
2022/11/16 11:07:29;;;;;;;4.07;2.80;;;;;;;11.14;100.00;154219.38;4981985;28;20516;-78
2022/11/16 11:10:25;;;;;;;2.77;2.20;;;;;;;11.17;100.00;154227.16;4966973;28;20461;-78
2022/11/16 11:13:25;;;;;;;2.87;2.07;;;;;;;11.24;100.00;154245.25;4976930;28;20497;-78
2022/11/16 11:16:15;;;;;;;2.43;2.07;;;;;;;11.32;100.00;154266.00;4984243;28;20466;-79
2022/11/16 11:19:19;;;;;;;4.10;1.90;;;;;;;11.36;100.00;154276.34;4978843;28;20836;-78
2022/11/16 11:22:05;;;;;;;1.97;1.40;;;;;;;11.40;100.00;154286.72;4981247;28;20438;-78
2022/11/16 11:24:51;;;;;;;2.67;1.17;;;;;;;11.44;100.00;154297.06;4981271;28;20584;-78
2022/11/16 11:27:36;;;;;;;3.00;1.73;;;;;;;11.51;100.00;154315.25;4992140;28;20449;-78
2022/11/16 11:30:23;;;;;;;3.73;1.50;;;;;;;11.68;100.00;154359.28;4993758;28;20572;-78
2022/11/16 11:33:10;;;;;;;1.60;0.93;;;;;;;11.70;100.00;154364.53;4989669;28;21018;-78
2022/11/16 11:36:01;;;;;;;1.77;1.07;;;;;;;11.85;100.00;154403.41;4993421;28;20457;-78
2022/11/16 11:38:58;;;;;;;2.70;1.70;;;;;;;11.92;100.00;154420.22;4993840;28;20441;-79
2022/11/16 11:41:46;;;;;;;3.60;1.20;;;;;;;11.99;100.00;154439.66;4994502;28;20460;-78
2022/11/16 11:44:38;;;;;;;4.10;0.90;;;;;;;12.05;100.00;154455.25;4975080;28;20489;-79
2022/11/16 11:47:47;;;;;;;1.60;1.10;;;;;;;12.07;100.00;154459.16;4977440;28;20441;-78
2022/11/16 11:50:39;;;;;;;3.47;1.17;;;;;;;12.12;100.00;154473.41;4990602;28;20428;-78
2022/11/16 11:53:34;;;;;;;3.20;0.97;;;;;;;12.15;100.00;154479.91;4992247;28;20441;-78
2022/11/16 11:56:19;;;;;;;1.67;0.77;;;;;;;12.19;100.00;154491.56;4970712;28;21210;-78
2022/11/16 11:59:05;;;;;;;1.70;0.83;;;;;;;12.19;100.00;154490.25;4993130;28;20461;-78
2022/11/16 12:02:03;;;;;;;1.37;0.80;;;;;;;12.21;100.00;154496.72;4990339;28;20461;-78
2022/11/16 12:05:20;;;;;;;2.30;0.80;;;;;;;12.21;100.00;154496.72;4989687;28;20460;-78
2022/11/16 12:08:17;;;;;;;2.37;1.00;;;;;;;12.19;100.00;154491.56;4991405;28;20503;-78
2022/11/16 12:11:07;;;;;;;2.40;1.07;;;;;;;12.25;100.00;154505.81;4987981;28;20488;-78
2022/11/16 12:14:06;;;;;;;2.20;0.93;;;;;;;12.30;100.00;154518.78;4988610;28;20853;-78
2022/11/16 12:16:57;;;;;;;1.90;1.00;;;;;;;12.33;100.00;154526.56;4980327;28;20957;-78
2022/11/16 12:20:15;;;;;;;2.13;0.80;;;;;;;12.37;100.00;154535.59;4974067;28;20920;-78
2022/11/16 12:23:27;;;;;;;3.20;0.70;;;;;;;12.44;99.80;154553.78;4978938;28;20437;-78
2022/11/16 12:26:19;;;;;;;11.10;1.00;;;;;;;12.47;97.18;154562.84;4981063;28;20444;-78
2022/11/16 12:29:18;;;;;;;2.40;0.70;;;;;;;12.46;96.99;154560.28;4982679;28;20999;-78
2022/11/16 12:32:24;;;;;;;4.67;1.00;;;;;;;12.42;95.61;154548.56;4980230;28;20539;-78
2022/11/16 12:35:33;;;;;;;2.33;0.60;;;;;;;12.37;93.51;154535.59;4993200;28;20429;-78
2022/11/16 12:38:30;;;;;;;2.77;0.70;;;;;;;12.32;92.71;154522.66;4982988;28;20529;-78
2022/11/16 12:41:58;;;;;;;4.57;0.97;;;;;;;12.32;92.45;154523.94;4974072;28;20548;-78
2022/11/16 12:44:56;;;;;;;1.00;0.40;;;;;;;12.29;95.47;154516.16;4947028;28;20453;-78
2022/11/16 12:47:55;;;;;;;1.63;0.90;;;;;;;12.30;94.90;154517.47;4988667;28;20797;-78
2022/11/16 12:50:49;;;;;;;1.53;0.70;;;;;;;12.43;90.09;154552.50;4986583;28;20440;-78
2022/11/16 12:53:47;;;;;;;5.27;0.73;;;;;;;12.44;93.41;154555.09;4985022;28;20794;-78
2022/11/16 12:56:40;;;;;;;1.60;0.53;;;;;;;12.46;89.11;154560.28;4979249;28;20506;-78
2022/11/16 12:59:35;;;;;;;1.17;0.50;;;;;;;12.43;89.59;154551.19;4987066;28;20428;-78
2022/11/16 13:02:29;;;;;;;1.83;0.60;;;;;;;12.43;91.47;154551.19;4986650;28;20466;-78
2022/11/16 13:05:18;;;;;;;2.10;1.00;;;;;;;12.37;91.88;154535.59;4985495;28;20943;-78
2022/11/16 13:08:09;;;;;;;2.40;0.63;;;;;;;12.39;89.60;154540.84;4985186;28;20959;-78
2022/11/16 13:10:57;;;;;;;1.80;0.80;;;;;;;12.31;91.48;154521.34;4988266;28;20508;-78
2022/11/16 13:13:44;;;;;;;1.63;0.97;;;;;;;12.26;92.56;154507.13;4975052;28;20534;-78
2022/11/16 13:16:29;;;;;;;1.00;0.40;;;;;;;12.23;94.67;154499.34;4990841;28;20437;-78
2022/11/16 13:19:16;;;;;;;1.53;0.70;;;;;;;12.23;93.27;154500.66;4992627;28;20442;-77
2022/11/16 13:22:07;;;;;;;2.13;1.10;;;;;;;12.22;90.50;154498.03;4985652;28;20465;-77
2022/11/16 13:24:57;;;;;;;1.87;0.73;;;;;;;12.14;94.08;154478.59;4975582;28;20458;-77
2022/11/16 13:27:46;;;;;;;2.63;0.97;;;;;;;12.15;92.60;154481.16;4970259;28;21653;-77
2022/11/16 13:30:38;;;;;;;3.37;0.80;;;;;;;12.15;97.04;154481.16;4982923;28;20564;-77
2022/11/16 13:33:32;;;;;;;1.47;0.60;;;;;;;12.13;91.31;154475.97;4989095;28;20560;-77
2022/11/16 13:36:43;;;;;;;2.93;0.60;;;;;;;12.10;90.40;154466.88;4990825;28;20943;-77
2022/11/16 13:40:17;;;;;;;1.57;0.60;;;;;;;12.12;90.12;154473.41;4991074;28;20528;-77
2022/11/16 13:43:18;;;;;;;1.67;0.50;;;;;;;12.03;90.01;154448.75;4894138;29;20502;-77
2022/11/16 13:46:03;;;;;;;1.10;0.43;;;;;;;12.01;88.91;154444.91;4980108;28;20814;-77
2022/11/16 13:48:49;;;;;;;1.80;0.70;;;;;;;11.96;89.18;154431.94;4991095;28;20444;-77
2022/11/16 13:51:34;;;;;;;0.93;0.40;;;;;;;11.86;89.19;154405.97;4983788;28;20456;-77
2022/11/16 13:54:28;;;;;;;1.67;0.67;;;;;;;11.83;90.13;154398.22;4982411;28;20597;-77
2022/11/16 13:57:22;;;;;;;1.47;0.70;;;;;;;11.81;88.78;154393.00;4975372;28;20894;-76